createdAt,value
2018-01-24T00:01:24.298Z,48.49
2018-01-24T00:03:52.053Z,48.43
2018-01-24T00:06:19.617Z,48.50
2018-01-24T00:08:46.986Z,48.47
2018-01-24T00:11:14.536Z,48.56
2018-01-24T00:13:42.007Z,48.63
2018-01-24T00:16:09.554Z,48.61
2018-01-24T00:18:37.276Z,48.51
2018-01-24T00:21:04.688Z,48.50
2018-01-24T00:23:32.062Z,48.53
2018-01-24T00:25:59.613Z,48.34
2018-01-24T00:28:26.991Z,48.44
2018-01-24T00:30:54.558Z,48.26
2018-01-24T00:33:22.138Z,48.34
2018-01-24T00:35:49.546Z,48.44
2018-01-24T00:38:16.910Z,48.29
2018-01-24T00:40:44.314Z,48.32
2018-01-24T00:43:11.665Z,48.32
2018-01-24T00:45:39.101Z,48.28
2018-01-24T00:48:06.770Z,48.33
2018-01-24T00:50:34.139Z,48.42
2018-01-24T00:53:01.540Z,48.44
2018-01-24T00:55:29.997Z,48.47
2018-01-24T00:57:57.377Z,48.50
2018-01-24T01:00:24.722Z,48.64
2018-01-24T01:02:52.095Z,48.59
2018-01-24T01:05:19.551Z,48.59
2018-01-24T01:07:46.999Z,48.59
2018-01-24T01:10:14.385Z,48.72
2018-01-24T01:12:41.785Z,48.70
2018-01-24T01:15:09.162Z,48.71
2018-01-24T01:17:36.671Z,48.39
2018-01-24T01:20:04.226Z,48.32
2018-01-24T01:22:31.673Z,48.36
2018-01-24T01:24:59.014Z,48.42
2018-01-24T01:27:26.596Z,48.37
2018-01-24T01:29:53.975Z,48.38
2018-01-24T01:32:21.549Z,48.47
2018-01-24T01:34:49.105Z,48.40
2018-01-24T01:37:16.629Z,48.50
2018-01-24T01:39:44.107Z,48.52
2018-01-24T01:42:11.514Z,48.51
2018-01-24T01:44:39.006Z,48.57
2018-01-24T01:47:06.381Z,48.51
2018-01-24T01:49:33.798Z,48.59
2018-01-24T01:52:01.237Z,48.54
2018-01-24T01:54:28.570Z,48.60
2018-01-24T01:56:56.210Z,48.65
2018-01-24T01:59:23.636Z,48.42
2018-01-24T02:01:51.016Z,48.35
2018-01-24T02:04:18.452Z,48.36
2018-01-24T02:06:46.134Z,48.39
2018-01-24T02:09:13.522Z,48.43
2018-01-24T02:11:41.302Z,48.41
2018-01-24T02:14:08.677Z,48.51
2018-01-24T02:16:36.044Z,48.51
2018-01-24T02:19:03.664Z,48.44
2018-01-24T02:21:31.039Z,48.55
2018-01-24T02:23:58.478Z,48.27
2018-01-24T02:26:25.842Z,48.47
2018-01-24T02:28:53.458Z,48.44
2018-01-24T02:31:20.895Z,48.31
2018-01-24T02:33:48.294Z,48.54
2018-01-24T02:36:15.677Z,48.38
2018-01-24T02:38:43.043Z,48.31
2018-01-24T02:41:10.411Z,48.32
2018-01-24T02:43:38.651Z,48.37
2018-01-24T02:46:06.012Z,48.32
2018-01-24T02:48:33.451Z,48.36
2018-01-24T02:51:00.867Z,48.36
2018-01-24T02:53:28.261Z,48.33
2018-01-24T02:55:55.692Z,48.33
2018-01-24T02:58:23.039Z,48.17
2018-01-24T03:00:50.412Z,48.06
2018-01-24T03:03:17.912Z,48.17
2018-01-24T03:05:45.298Z,48.15
2018-01-24T03:08:13.188Z,48.14
2018-01-24T03:10:40.561Z,48.13
2018-01-24T03:13:07.906Z,47.79
2018-01-24T03:15:35.330Z,47.77
2018-01-24T03:18:02.686Z,47.68
2018-01-24T03:20:30.098Z,47.67
2018-01-24T03:22:57.537Z,47.92
2018-01-24T03:25:25.230Z,47.83
2018-01-24T03:27:52.618Z,48.04
2018-01-24T03:30:20.097Z,47.93
2018-01-24T03:32:47.579Z,47.97
2018-01-24T03:35:14.984Z,48.06
2018-01-24T03:37:44.406Z,48.05
2018-01-24T03:40:11.796Z,47.91
2018-01-24T03:42:39.205Z,48.01
2018-01-24T03:45:06.623Z,48.07
2018-01-24T03:47:33.967Z,48.03
2018-01-24T03:50:01.712Z,47.97
2018-01-24T03:52:29.179Z,47.96
2018-01-24T03:54:56.773Z,48.04
2018-01-24T03:57:24.234Z,48.13
2018-01-24T03:59:51.903Z,48.07
2018-01-24T04:02:20.028Z,48.10
2018-01-24T04:04:47.514Z,48.23
2018-01-24T04:07:14.876Z,48.15
2018-01-24T04:09:42.297Z,48.10
2018-01-24T04:12:09.759Z,47.96
2018-01-24T04:14:37.351Z,47.88
2018-01-24T04:17:06.151Z,47.71
2018-01-24T04:19:33.545Z,47.70
2018-01-24T04:22:01.394Z,47.60
2018-01-24T04:24:30.891Z,47.44
2018-01-24T04:26:58.521Z,47.38
2018-01-24T04:29:26.920Z,47.73
2018-01-24T04:31:54.457Z,47.57
2018-01-24T04:34:21.926Z,47.56
2018-01-24T04:36:49.784Z,47.48
2018-01-24T04:39:17.336Z,47.57
2018-01-24T04:41:44.754Z,47.48
2018-01-24T04:44:12.380Z,47.47
2018-01-24T04:46:41.536Z,47.25
2018-01-24T04:49:09.099Z,47.21
2018-01-24T04:51:37.005Z,47.71
2018-01-24T04:54:05.102Z,48.38
2018-01-24T04:56:32.646Z,47.74
2018-01-24T04:59:00.331Z,47.15
2018-01-24T05:01:27.718Z,47.03
2018-01-24T05:03:55.231Z,46.99
2018-01-24T05:06:33.243Z,47.10
2018-01-24T05:09:00.873Z,47.06
2018-01-24T05:11:28.247Z,47.12
2018-01-24T05:13:55.677Z,47.18
2018-01-24T05:16:23.089Z,47.11
2018-01-24T05:18:50.617Z,47.12
2018-01-24T05:21:18.022Z,47.00
2018-01-24T05:23:45.474Z,46.98
2018-01-24T05:26:12.946Z,46.98
2018-01-24T05:28:40.343Z,47.13
2018-01-24T05:31:07.982Z,47.09
2018-01-24T05:33:35.440Z,47.16
2018-01-24T05:36:02.833Z,47.25
2018-01-24T05:38:30.484Z,47.30
2018-01-24T05:40:58.130Z,47.53
2018-01-24T05:43:25.533Z,47.56
2018-01-24T05:45:52.938Z,47.48
2018-01-24T05:48:21.470Z,47.68
2018-01-24T05:50:49.855Z,47.76
2018-01-24T05:55:51.161Z,47.71
2018-01-24T05:58:18.551Z,47.63
2018-01-24T06:00:45.913Z,47.76
2018-01-24T06:03:14.074Z,47.52
2018-01-24T06:05:41.772Z,47.33
2018-01-24T06:08:09.203Z,47.39
2018-01-24T06:10:37.338Z,47.36
2018-01-24T06:13:05.677Z,47.26
2018-01-24T06:15:33.221Z,47.17
2018-01-24T06:18:00.749Z,46.87
2018-01-24T06:20:28.199Z,46.92
2018-01-24T06:22:57.563Z,47.21
2018-01-24T06:25:25.196Z,46.93
2018-01-24T06:27:52.838Z,46.69
2018-01-24T06:30:20.432Z,47.05
2018-01-24T06:32:47.829Z,46.81
2018-01-24T06:35:15.185Z,47.00
2018-01-24T06:37:42.595Z,46.66
2018-01-24T06:40:09.954Z,46.65
2018-01-24T06:42:37.384Z,46.76
2018-01-24T06:45:04.868Z,46.69
2018-01-24T06:47:32.309Z,46.86
2018-01-24T06:49:59.707Z,46.77
2018-01-24T06:52:27.432Z,46.60
2018-01-24T06:54:54.852Z,46.80
2018-01-24T06:57:22.260Z,47.14
2018-01-24T06:59:49.824Z,46.85
2018-01-24T07:02:17.209Z,46.70
2018-01-24T07:04:44.733Z,47.96
2018-01-24T07:07:12.104Z,46.51
2018-01-24T07:09:39.664Z,47.02
2018-01-24T07:12:07.094Z,46.47
2018-01-24T07:14:34.498Z,46.46
2018-01-24T07:17:02.041Z,44.50
2018-01-24T07:19:29.657Z,45.23
2018-01-24T07:21:57.113Z,45.22
2018-01-24T07:24:24.736Z,44.11
2018-01-24T07:26:52.705Z,44.00
2018-01-24T07:29:21.459Z,43.82
2018-01-24T07:31:48.871Z,43.16
2018-01-24T07:34:16.415Z,41.38
2018-01-24T07:36:43.947Z,41.96
2018-01-24T07:39:11.406Z,40.79
2018-01-24T07:41:38.908Z,40.27
2018-01-24T07:44:06.901Z,39.55
2018-01-24T07:46:34.579Z,39.03
2018-01-24T07:49:02.207Z,38.11
2018-01-24T07:51:29.811Z,39.31
2018-01-24T07:53:57.369Z,38.09
2018-01-24T07:56:24.896Z,38.32
2018-01-24T07:58:52.651Z,36.72
2018-01-24T08:01:20.338Z,36.81
2018-01-24T08:03:49.536Z,36.47
2018-01-24T08:06:17.308Z,36.75
2018-01-24T08:08:44.861Z,36.15
2018-01-24T08:11:12.310Z,36.57
2018-01-24T08:13:40.005Z,35.25
2018-01-24T08:16:07.831Z,34.87
2018-01-24T08:18:35.319Z,35.26
2018-01-24T08:21:03.094Z,35.08
2018-01-24T08:23:32.307Z,34.24
2018-01-24T08:26:00.256Z,34.29
2018-01-24T08:28:28.074Z,34.17
2018-01-24T08:30:55.702Z,33.22
2018-01-24T08:33:24.037Z,33.76
2018-01-24T08:35:51.892Z,33.60
2018-01-24T08:38:19.692Z,33.92
2018-01-24T08:40:47.228Z,32.84
2018-01-24T08:43:16.111Z,33.05
2018-01-24T08:45:43.768Z,32.73
2018-01-24T08:48:11.760Z,32.53
2018-01-24T08:50:40.612Z,32.49
2018-01-24T08:53:08.237Z,32.05
2018-01-24T08:55:36.020Z,31.65
2018-01-24T08:58:03.910Z,31.87
2018-01-24T09:00:31.805Z,31.24
2018-01-24T09:02:59.833Z,31.64
2018-01-24T09:05:27.323Z,31.76
2018-01-24T09:10:17.097Z,31.28
2018-01-24T09:12:45.796Z,31.30
2018-01-24T09:15:15.870Z,31.32
2018-01-24T09:17:45.421Z,30.94
2018-01-24T09:20:13.410Z,30.63
2018-01-24T09:22:41.872Z,31.05
2018-01-24T09:25:11.124Z,30.08
2018-01-24T09:27:38.685Z,30.08
2018-01-24T09:30:06.483Z,29.77
2018-01-24T09:32:34.460Z,30.07
2018-01-24T09:35:02.682Z,29.63
2018-01-24T09:37:30.418Z,29.70
2018-01-24T09:39:58.699Z,29.60
2018-01-24T09:42:26.437Z,29.31
2018-01-24T09:44:53.930Z,29.34
2018-01-24T09:47:21.712Z,29.10
2018-01-24T09:49:51.062Z,29.03
2018-01-24T09:52:19.720Z,29.04
2018-01-24T09:54:47.837Z,29.31
2018-01-24T09:57:16.946Z,28.87
2018-01-24T09:59:45.050Z,28.91
2018-01-24T10:02:12.919Z,28.67
2018-01-24T10:04:41.248Z,28.86
2018-01-24T10:07:09.593Z,28.87
2018-01-24T10:09:38.892Z,28.49
2018-01-24T10:12:07.166Z,27.98
2018-01-24T10:14:37.468Z,28.38
2018-01-24T10:17:05.232Z,28.20
2018-01-24T10:19:41.227Z,28.21
2018-01-24T10:22:10.829Z,28.07
2018-01-24T10:24:38.924Z,28.17
2018-01-24T10:27:07.162Z,28.35
2018-01-24T10:29:38.004Z,28.00
2018-01-24T10:32:06.097Z,27.92
2018-01-24T10:34:33.659Z,27.76
2018-01-24T10:37:02.022Z,27.61
2018-01-24T10:39:30.729Z,27.81
2018-01-24T10:41:58.643Z,27.32
2018-01-24T10:44:30.549Z,27.18
2018-01-24T10:46:59.113Z,27.38
2018-01-24T10:49:27.411Z,27.19
2018-01-24T10:51:56.756Z,27.32
2018-01-24T10:54:24.932Z,26.85
2018-01-24T10:56:54.160Z,26.87
2018-01-24T10:59:22.580Z,26.62
2018-01-24T11:01:52.097Z,26.93
2018-01-24T11:04:20.029Z,26.94
2018-01-24T11:06:49.553Z,26.40
2018-01-24T11:09:17.442Z,26.18
2018-01-24T11:11:46.125Z,26.64
2018-01-24T11:14:16.298Z,26.25
2018-01-24T11:16:45.561Z,26.28
2018-01-24T11:19:15.505Z,27.03
2018-01-24T11:21:43.057Z,26.97
2018-01-24T11:24:10.461Z,26.56
2018-01-24T11:26:37.955Z,26.48
2018-01-24T11:31:58.243Z,26.49
2018-01-24T11:34:25.914Z,26.46
2018-01-24T11:36:53.447Z,27.32
2018-01-24T11:39:39.943Z,27.19
2018-01-24T11:42:29.080Z,26.30
2018-01-24T11:47:48.257Z,26.79
2018-01-24T11:50:16.786Z,26.54
2018-01-24T11:52:45.386Z,27.05
2018-01-24T11:55:13.472Z,26.16
2018-01-24T11:57:43.683Z,25.93
2018-01-24T12:00:13.144Z,25.66
2018-01-24T12:05:52.575Z,25.83
2018-01-24T12:08:22.233Z,26.99
2018-01-24T12:10:49.782Z,26.59
2018-01-24T12:13:17.286Z,26.41
2018-01-24T12:15:45.515Z,26.33
2018-01-24T12:18:12.996Z,26.38
2018-01-24T12:20:42.451Z,27.03
2018-01-24T12:23:10.054Z,26.95
2018-01-24T12:25:37.511Z,26.35
2018-01-24T12:28:08.582Z,27.11
2018-01-24T12:30:36.193Z,27.24
2018-01-24T12:33:03.848Z,26.69
2018-01-24T12:35:31.303Z,27.09
2018-01-24T12:37:58.914Z,27.02
2018-01-24T12:40:26.418Z,27.06
2018-01-24T12:42:54.025Z,26.79
2018-01-24T12:45:21.470Z,27.84
2018-01-24T12:47:49.040Z,27.45
2018-01-24T12:50:16.524Z,26.77
2018-01-24T12:52:44.113Z,27.32
2018-01-24T12:55:12.596Z,26.71
2018-01-24T12:57:40.046Z,26.21
2018-01-24T13:00:07.706Z,26.01
2018-01-24T13:02:35.438Z,26.17
2018-01-24T13:05:02.969Z,27.30
2018-01-24T13:07:30.387Z,25.63
2018-01-24T13:09:58.968Z,25.84
2018-01-24T13:12:26.564Z,26.19
2018-01-24T13:14:54.122Z,25.87
2018-01-24T13:17:21.743Z,25.94
2018-01-24T13:19:49.129Z,25.83
2018-01-24T13:22:16.611Z,25.09
2018-01-24T13:24:44.100Z,25.89
2018-01-24T13:27:11.899Z,25.64
2018-01-24T13:29:40.919Z,25.46
2018-01-24T13:32:08.349Z,25.28
2018-01-24T13:34:36.155Z,24.86
2018-01-24T13:37:04.088Z,25.33
2018-01-24T13:39:31.497Z,25.81
2018-01-24T13:41:59.197Z,25.58
2018-01-24T13:44:26.664Z,25.14
2018-01-24T13:46:54.230Z,25.42
2018-01-24T13:49:21.667Z,26.34
2018-01-24T13:51:49.222Z,25.10
2018-01-24T13:54:16.744Z,25.37
2018-01-24T13:56:44.222Z,25.48
2018-01-24T13:59:11.841Z,25.06
2018-01-24T14:01:39.350Z,26.97
2018-01-24T14:04:06.856Z,24.53
2018-01-24T14:06:34.416Z,25.48
2018-01-24T14:09:01.982Z,24.91
2018-01-24T14:11:29.537Z,25.93
2018-01-24T14:13:56.945Z,25.10
2018-01-24T14:16:24.370Z,25.19
2018-01-24T14:18:52.119Z,25.30
2018-01-24T14:21:19.750Z,25.77
2018-01-24T14:23:47.214Z,24.95
2018-01-24T14:26:14.646Z,25.01
2018-01-24T14:28:42.180Z,25.05
2018-01-24T14:31:09.938Z,25.00
2018-01-24T14:33:37.430Z,24.79
2018-01-24T14:36:05.188Z,24.51
2018-01-24T14:38:32.974Z,24.77
2018-01-24T14:41:00.527Z,24.54
2018-01-24T14:43:28.092Z,24.49
2018-01-24T14:45:55.638Z,24.64
2018-01-24T14:48:23.138Z,24.62
2018-01-24T14:50:50.698Z,24.71
2018-01-24T14:53:18.112Z,24.54
2018-01-24T14:55:45.597Z,24.57
2018-01-24T14:58:13.029Z,24.47
2018-01-24T15:00:40.730Z,24.26
2018-01-24T15:03:08.308Z,24.25
2018-01-24T15:05:35.877Z,24.03
2018-01-24T15:08:03.292Z,24.14
2018-01-24T15:10:30.766Z,24.13
2018-01-24T15:12:58.823Z,24.15
2018-01-24T15:15:26.339Z,23.93
2018-01-24T15:17:53.995Z,24.01
2018-01-24T15:20:21.428Z,23.99
2018-01-24T15:22:49.009Z,23.98
2018-01-24T15:25:16.572Z,23.84
2018-01-24T15:27:44.021Z,23.80
2018-01-24T15:30:11.437Z,23.86
2018-01-24T15:32:38.894Z,23.89
2018-01-24T15:35:06.399Z,23.61
2018-01-24T15:37:33.823Z,23.75
2018-01-24T15:40:01.234Z,23.71
2018-01-24T15:42:28.638Z,23.65
2018-01-24T15:44:56.100Z,23.80
2018-01-24T15:47:23.498Z,23.60
2018-01-24T15:49:52.479Z,23.28
2018-01-24T15:52:19.873Z,23.63
2018-01-24T15:54:47.311Z,23.52
2018-01-24T15:57:14.751Z,23.48
2018-01-24T15:59:42.349Z,23.35
2018-01-24T16:02:09.759Z,23.42
2018-01-24T16:04:37.446Z,23.56
2018-01-24T16:07:04.903Z,23.78
2018-01-24T16:09:32.430Z,23.57
2018-01-24T16:11:59.879Z,23.41
2018-01-24T16:14:27.264Z,23.38
2018-01-24T16:16:54.939Z,23.58
2018-01-24T16:19:29.361Z,24.13
2018-01-24T16:21:56.730Z,23.37
2018-01-24T16:24:24.290Z,23.45
2018-01-24T16:26:51.829Z,24.61
2018-01-24T16:29:19.305Z,23.76
2018-01-24T16:31:46.711Z,23.70
2018-01-24T16:34:14.345Z,24.02
2018-01-24T16:36:41.880Z,23.49
2018-01-24T16:39:09.346Z,23.93
2018-01-24T16:41:36.933Z,23.58
2018-01-24T16:44:04.326Z,23.81
2018-01-24T16:46:31.751Z,23.84
2018-01-24T16:48:59.157Z,23.40
2018-01-24T16:51:26.518Z,23.39
2018-01-24T16:53:53.911Z,23.11
2018-01-24T16:56:21.314Z,23.21
2018-01-24T16:58:48.783Z,23.56
2018-01-24T17:01:16.175Z,23.54
2018-01-24T17:03:43.738Z,23.20
2018-01-24T17:06:11.211Z,23.46
2018-01-24T17:08:38.892Z,23.31
2018-01-24T17:11:06.307Z,23.23
2018-01-24T17:13:33.717Z,23.15
2018-01-24T17:16:01.158Z,23.12
2018-01-24T17:18:28.518Z,23.27
2018-01-24T17:20:56.050Z,23.35
2018-01-24T17:23:23.413Z,23.62
2018-01-24T17:25:50.928Z,23.80
2018-01-24T17:28:18.298Z,23.85
2018-01-24T17:30:45.700Z,23.03
2018-01-24T17:33:13.216Z,23.08
2018-01-24T17:35:40.635Z,23.78
2018-01-24T17:38:08.094Z,23.21
2018-01-24T17:40:35.449Z,22.99
2018-01-24T17:43:02.837Z,23.38
2018-01-24T17:45:30.217Z,23.25
2018-01-24T17:47:57.823Z,22.98
2018-01-24T17:50:25.194Z,23.07
2018-01-24T17:52:52.611Z,23.08
2018-01-24T17:55:19.963Z,22.61
2018-01-24T17:57:48.999Z,23.00
2018-01-24T18:00:16.572Z,22.62
2018-01-24T18:02:44.019Z,22.58
2018-01-24T18:05:11.588Z,23.38
2018-01-24T18:07:39.069Z,23.60
2018-01-24T18:10:06.508Z,23.77
2018-01-24T18:12:33.929Z,23.69
2018-01-24T18:15:01.434Z,23.65
2018-01-24T18:17:29.131Z,23.63
2018-01-24T18:19:56.483Z,23.58
2018-01-24T18:22:23.895Z,23.77
2018-01-24T18:24:51.286Z,23.58
2018-01-24T18:29:52.363Z,23.71
2018-01-24T18:32:19.807Z,23.71
2018-01-24T18:34:47.172Z,23.59
2018-01-24T18:37:14.596Z,23.67
2018-01-24T18:39:41.990Z,23.59
2018-01-24T18:42:09.570Z,23.47
2018-01-24T18:44:37.218Z,23.37
2018-01-24T18:47:04.682Z,23.44
2018-01-24T18:49:32.030Z,23.42
2018-01-24T18:51:59.562Z,23.49
2018-01-24T18:54:26.958Z,23.48
2018-01-24T18:56:54.727Z,23.47
2018-01-24T18:59:22.077Z,23.38
2018-01-24T19:01:49.498Z,23.42
2018-01-24T19:04:17.006Z,23.39
2018-01-24T19:06:44.796Z,23.22
2018-01-24T19:09:12.379Z,23.23
2018-01-24T19:11:39.785Z,23.15
2018-01-24T19:14:07.275Z,23.20
2018-01-24T19:16:34.677Z,23.24
2018-01-24T19:19:02.094Z,23.09
2018-01-24T19:21:30.051Z,22.93
2018-01-24T19:23:57.457Z,22.99
2018-01-24T19:26:25.112Z,23.16
2018-01-24T19:28:52.519Z,23.14
2018-01-24T19:31:19.931Z,23.20
2018-01-24T19:33:47.430Z,23.49
2018-01-24T19:36:15.047Z,23.41
2018-01-24T19:38:42.465Z,23.42
2018-01-24T19:41:10.012Z,23.49
2018-01-24T19:43:37.470Z,23.53
2018-01-24T19:46:05.055Z,23.71
2018-01-24T19:48:32.690Z,23.66
2018-01-24T19:51:00.123Z,23.71
2018-01-24T19:53:27.554Z,23.76
2018-01-24T19:55:56.809Z,23.67
2018-01-24T19:58:24.258Z,23.87
2018-01-24T20:00:51.738Z,23.75
2018-01-24T20:03:19.267Z,23.71
2018-01-24T20:05:46.700Z,23.64
2018-01-24T20:08:14.103Z,23.81
2018-01-24T20:10:41.464Z,23.75
2018-01-24T20:13:09.267Z,23.72
2018-01-24T20:15:36.757Z,23.74
2018-01-24T20:18:04.498Z,23.69
2018-01-24T20:20:31.857Z,23.69
2018-01-24T20:22:59.253Z,23.76
2018-01-24T20:25:26.688Z,23.75
2018-01-24T20:27:54.215Z,23.71
2018-01-24T20:30:21.860Z,23.68
2018-01-24T20:32:49.234Z,23.69
2018-01-24T20:35:16.647Z,23.74
2018-01-24T20:37:44.167Z,23.73
2018-01-24T20:40:11.529Z,23.69
2018-01-24T20:42:39.038Z,23.71
2018-01-24T20:45:06.709Z,23.65
2018-01-24T20:47:34.211Z,23.70
2018-01-24T20:50:01.700Z,23.70
2018-01-24T20:52:29.083Z,23.63
2018-01-24T20:54:56.441Z,23.70
2018-01-24T20:57:23.909Z,23.66
2018-01-24T20:59:51.282Z,23.62
2018-01-24T21:02:18.677Z,23.69
2018-01-24T21:04:46.099Z,23.59
2018-01-24T21:07:13.523Z,23.58
2018-01-24T21:09:40.928Z,23.62
2018-01-24T21:12:08.729Z,23.59
2018-01-24T21:14:36.495Z,23.59
2018-01-24T21:17:03.874Z,23.67
2018-01-24T21:19:31.396Z,23.61
2018-01-24T21:21:59.215Z,23.65
2018-01-24T21:24:26.937Z,23.75
2018-01-24T21:26:55.159Z,23.85
2018-01-24T21:29:22.632Z,23.89
2018-01-24T21:31:50.000Z,23.97
2018-01-24T21:34:17.447Z,24.19
2018-01-24T21:36:44.846Z,24.28
2018-01-24T21:39:13.110Z,23.89
2018-01-24T21:41:40.487Z,24.11
2018-01-24T21:44:07.912Z,24.11
2018-01-24T21:46:35.386Z,24.33
2018-01-24T21:49:02.737Z,24.04
2018-01-24T21:51:30.230Z,24.12
2018-01-24T21:53:57.677Z,24.08
2018-01-24T21:56:25.039Z,24.21
2018-01-24T21:58:52.438Z,23.98
2018-01-24T22:01:19.837Z,24.02
2018-01-24T22:03:47.210Z,24.13
2018-01-24T22:06:16.148Z,24.09
2018-01-24T22:08:43.680Z,24.11
2018-01-24T22:11:11.056Z,24.02
2018-01-24T22:13:38.458Z,24.19
2018-01-24T22:16:05.853Z,23.99
2018-01-24T22:18:34.413Z,24.11
2018-01-24T22:21:01.923Z,23.94
2018-01-24T22:23:29.482Z,24.10
2018-01-24T22:25:56.865Z,24.01
2018-01-24T22:28:24.271Z,24.08
2018-01-24T22:30:52.275Z,24.10
2018-01-24T22:33:19.660Z,23.99
2018-01-24T22:35:47.090Z,24.24
2018-01-24T22:38:14.553Z,24.28
2018-01-24T22:40:42.402Z,24.05
2018-01-24T22:43:09.813Z,24.00
2018-01-24T22:45:37.179Z,24.10
2018-01-24T22:48:04.982Z,24.14
2018-01-24T22:50:32.403Z,24.12
2018-01-24T22:52:59.879Z,24.06
2018-01-24T22:55:27.414Z,23.98
2018-01-24T22:57:54.804Z,24.25
2018-01-24T23:00:22.206Z,24.01
2018-01-24T23:02:49.694Z,24.15
2018-01-24T23:05:17.138Z,24.12
2018-01-24T23:07:44.770Z,24.06
2018-01-24T23:10:12.202Z,24.09
2018-01-24T23:12:39.819Z,24.11
2018-01-24T23:15:07.522Z,24.05
2018-01-24T23:17:34.946Z,23.95
2018-01-24T23:20:02.500Z,24.08
2018-01-24T23:22:29.938Z,23.99
2018-01-24T23:24:57.930Z,24.16
2018-01-24T23:27:25.438Z,24.14
2018-01-24T23:29:52.845Z,24.07
2018-01-24T23:32:20.249Z,24.08
2018-01-24T23:34:47.729Z,23.97
2018-01-24T23:37:15.317Z,24.15
2018-01-24T23:39:42.707Z,24.05
2018-01-24T23:42:10.133Z,24.28
2018-01-24T23:44:37.590Z,24.09
2018-01-24T23:47:05.078Z,24.19
2018-01-24T23:49:32.515Z,24.29
2018-01-24T23:51:59.923Z,24.12
2018-01-24T23:54:27.330Z,24.12
2018-01-24T23:59:27.962Z,24.13
